aviador You're here:

KVDF Decoded Metar

TAMPA/VANDENBURG in FL, USA
Report Time2018-02-25 11:15:00
UTC Time2018-02-25 11:32:58
Flight Rules mvfr MVFR
WindCalm
Visibility6437 m
Phenomena:Mist
Clouds:Scattered 090 Hf
CeilingNone
Temp17°C (ISA +2)
Dew Point17°C (100% RH)
QNH1022 hPa
Density Alt217 ft
Elevation23 ft
Report Wrong Elevation
Raw Report
KVDF 251115Z AUTO 00000KT 4SM BR SCT090 17/17 A3017 RMK AO2=

Extra information for KVDF:More info

Metar Taf Metar & Taf Last 4 Metars F.Rules Stats Wind Profile Meteogram Temp Stats Airport Information Weather charts Add Link Nearby VenuesMetar ALERT Operation Metar Decoded Social comments

AIRNAV info for KVDF